createdAt,value
2023-05-10T00:00:58.910Z,14.80
2023-05-10T00:03:26.487Z,14.90
2023-05-10T00:05:53.417Z,14.80
2023-05-10T00:08:21.046Z,14.80
2023-05-10T00:10:48.020Z,14.80
2023-05-10T00:13:15.257Z,14.90
2023-05-10T00:15:42.629Z,14.80
2023-05-10T00:18:09.658Z,14.90
2023-05-10T00:20:36.765Z,14.80
2023-05-10T00:23:03.885Z,14.70
2023-05-10T00:25:30.768Z,14.60
2023-05-10T00:27:58.357Z,14.40
2023-05-10T00:30:26.605Z,14.40
2023-05-10T00:32:53.463Z,14.50
2023-05-10T00:35:20.577Z,14.50
2023-05-10T00:37:47.436Z,14.60
2023-05-10T00:40:15.087Z,14.60
2023-05-10T00:42:42.370Z,14.70
2023-05-10T00:45:10.549Z,14.60
2023-05-10T00:47:37.487Z,14.60
2023-05-10T00:50:05.657Z,14.70
2023-05-10T00:52:32.958Z,14.70
2023-05-10T00:55:00.569Z,14.70
2023-05-10T00:57:28.024Z,14.70
2023-05-10T00:59:55.039Z,14.60
2023-05-10T01:02:22.597Z,14.60
2023-05-10T01:04:50.791Z,14.50
2023-05-10T01:07:18.079Z,14.60
2023-05-10T01:09:45.159Z,14.50
2023-05-10T01:12:12.581Z,14.40
2023-05-10T01:14:39.848Z,14.30
2023-05-10T01:17:07.786Z,14.30
2023-05-10T01:19:36.360Z,14.30
2023-05-10T01:22:15.826Z,14.30
2023-05-10T01:24:48.412Z,14.40
2023-05-10T01:27:27.494Z,14.30
2023-05-10T01:30:15.891Z,14.30
2023-05-10T01:33:17.599Z,14.40
2023-05-10T01:36:15.403Z,14.40
2023-05-10T01:39:00.216Z,14.20
2023-05-10T01:41:45.950Z,14.30
2023-05-10T01:44:22.012Z,14.30
2023-05-10T01:47:04.225Z,14.30
2023-05-10T01:49:38.010Z,14.30
2023-05-10T01:52:13.369Z,14.20
2023-05-10T01:54:44.856Z,14.40
2023-05-10T01:57:15.137Z,14.30
2023-05-10T01:59:47.283Z,14.30
2023-05-10T02:02:16.328Z,14.40
2023-05-10T02:04:44.523Z,14.40
2023-05-10T02:07:12.872Z,14.20
2023-05-10T02:09:41.021Z,14.40
2023-05-10T02:12:09.410Z,14.50
2023-05-10T02:14:38.186Z,14.50
2023-05-10T02:17:07.146Z,14.50
2023-05-10T02:19:35.615Z,14.50
2023-05-10T02:22:04.309Z,14.40
2023-05-10T02:24:33.096Z,14.20
2023-05-10T02:27:01.522Z,14.00
2023-05-10T02:29:30.885Z,14.00
2023-05-10T02:31:59.374Z,14.00
2023-05-10T02:34:31.030Z,14.00
2023-05-10T02:36:59.962Z,13.90
2023-05-10T02:39:29.628Z,13.80
2023-05-10T02:41:58.244Z,13.60
2023-05-10T02:44:30.030Z,13.60
2023-05-10T02:46:58.071Z,13.50
2023-05-10T02:49:25.001Z,13.40
2023-05-10T02:52:01.718Z,13.40
2023-05-10T02:54:32.947Z,13.50
2023-05-10T02:57:03.966Z,13.50
2023-05-10T02:59:30.862Z,13.40
2023-05-10T03:01:57.765Z,13.60
2023-05-10T03:04:25.469Z,13.50
2023-05-10T03:06:52.748Z,13.60
2023-05-10T03:09:20.893Z,13.50
2023-05-10T03:12:17.167Z,13.60
2023-05-10T03:14:48.855Z,13.50
2023-05-10T03:17:47.919Z,13.40
2023-05-10T03:20:30.858Z,13.50
2023-05-10T03:23:10.019Z,13.50
2023-05-10T03:25:38.268Z,13.50
2023-05-10T03:28:06.858Z,13.40
2023-05-10T03:30:35.979Z,13.30
2023-05-10T03:33:07.899Z,13.20
2023-05-10T03:35:35.278Z,13.20
2023-05-10T03:38:02.548Z,13.20
2023-05-10T03:40:32.532Z,13.50
2023-05-10T03:43:02.733Z,13.40
2023-05-10T03:45:29.790Z,13.60
2023-05-10T03:47:57.425Z,13.50
2023-05-10T03:50:24.740Z,13.40
2023-05-10T03:52:54.557Z,13.60
2023-05-10T03:55:21.922Z,13.50
2023-05-10T03:57:50.600Z,13.60
2023-05-10T04:00:18.855Z,13.60
2023-05-10T04:02:46.542Z,13.50
2023-05-10T04:05:13.975Z,13.40
2023-05-10T04:07:41.146Z,13.30
2023-05-10T04:10:09.518Z,13.40
2023-05-10T04:12:36.460Z,13.40
2023-05-10T04:15:04.546Z,13.50
2023-05-10T04:17:32.479Z,13.70
2023-05-10T04:19:59.417Z,13.80
2023-05-10T04:22:26.369Z,13.90
2023-05-10T04:24:53.223Z,13.90
2023-05-10T04:27:20.146Z,13.80
2023-05-10T04:29:47.834Z,13.70
2023-05-10T04:32:14.815Z,13.80
2023-05-10T04:34:41.673Z,13.70
2023-05-10T04:37:08.885Z,13.60
2023-05-10T04:39:36.550Z,13.60
2023-05-10T04:42:06.584Z,13.50
2023-05-10T04:44:33.944Z,13.60
2023-05-10T04:47:01.322Z,13.80
2023-05-10T04:49:28.435Z,13.80
2023-05-10T04:51:55.906Z,13.90
2023-05-10T04:54:22.846Z,13.80
2023-05-10T04:56:49.850Z,13.80
2023-05-10T04:59:16.751Z,13.60
2023-05-10T05:01:46.589Z,13.50
2023-05-10T05:04:13.596Z,13.70
2023-05-10T05:06:40.530Z,13.70
2023-05-10T05:09:07.759Z,13.80
2023-05-10T05:11:34.713Z,13.80
2023-05-10T05:14:01.739Z,13.80
2023-05-10T05:16:28.667Z,13.80
2023-05-10T05:18:55.698Z,13.90
2023-05-10T05:21:23.353Z,13.80
2023-05-10T05:23:50.319Z,13.80
2023-05-10T05:26:17.278Z,13.90
2023-05-10T05:28:44.390Z,13.90
2023-05-10T05:31:11.622Z,14.00
2023-05-10T05:33:38.571Z,13.70
2023-05-10T05:36:07.319Z,13.60
2023-05-10T05:38:34.522Z,13.60
2023-05-10T05:41:01.757Z,13.90
2023-05-10T05:43:28.907Z,13.90
2023-05-10T05:45:57.051Z,14.00
2023-05-10T05:48:24.031Z,14.00
2023-05-10T05:50:51.147Z,13.90
2023-05-10T05:53:17.952Z,14.00
2023-05-10T05:55:58.977Z,13.90
2023-05-10T05:58:29.079Z,13.90
2023-05-10T06:00:55.966Z,13.90
2023-05-10T06:03:23.138Z,13.90
2023-05-10T06:05:50.660Z,13.80
2023-05-10T06:08:17.616Z,13.70
2023-05-10T06:10:45.472Z,13.90
2023-05-10T06:13:12.479Z,13.70
2023-05-10T06:15:39.649Z,13.80
2023-05-10T06:18:07.855Z,13.90
2023-05-10T06:20:34.790Z,14.00
2023-05-10T06:23:01.872Z,14.00
2023-05-10T06:25:28.975Z,13.80
2023-05-10T06:27:58.773Z,13.70
2023-05-10T06:30:30.362Z,13.80
2023-05-10T06:32:58.035Z,13.80
2023-05-10T06:35:25.285Z,13.90
2023-05-10T06:37:52.561Z,14.00
2023-05-10T06:40:19.681Z,14.10
2023-05-10T06:42:47.380Z,14.20
2023-05-10T06:45:15.855Z,14.20
2023-05-10T06:47:43.488Z,14.00
2023-05-10T06:50:12.529Z,13.90
2023-05-10T06:52:40.140Z,14.00
2023-05-10T06:55:07.922Z,14.20
2023-05-10T06:57:34.987Z,14.10
2023-05-10T07:00:05.291Z,14.10
2023-05-10T07:02:32.888Z,14.10
2023-05-10T07:05:02.409Z,14.00
2023-05-10T07:07:30.235Z,14.10
2023-05-10T07:09:58.666Z,14.20
2023-05-10T07:12:26.662Z,14.20
2023-05-10T07:14:53.719Z,14.10
2023-05-10T07:17:20.992Z,14.20
2023-05-10T07:19:48.104Z,14.30
2023-05-10T07:22:15.581Z,14.20
2023-05-10T07:24:42.886Z,14.20
2023-05-10T07:27:10.098Z,14.10
2023-05-10T07:29:38.601Z,14.00
2023-05-10T07:32:07.450Z,14.00
2023-05-10T07:34:34.508Z,14.10
2023-05-10T07:37:01.909Z,14.20
2023-05-10T07:39:29.087Z,14.10
2023-05-10T07:41:56.560Z,14.10
2023-05-10T07:44:23.814Z,14.10
2023-05-10T07:46:51.051Z,14.30
2023-05-10T07:49:18.223Z,14.40
2023-05-10T07:51:45.346Z,14.60
2023-05-10T07:54:12.728Z,14.40
2023-05-10T07:56:40.883Z,14.40
2023-05-10T07:59:09.347Z,14.30
2023-05-10T08:01:37.798Z,14.30
2023-05-10T08:04:04.975Z,14.50
2023-05-10T08:06:32.034Z,14.60
2023-05-10T08:08:59.195Z,14.50
2023-05-10T08:11:26.435Z,14.60
2023-05-10T08:13:54.038Z,14.70
2023-05-10T08:16:21.652Z,14.90
2023-05-10T08:18:50.252Z,14.80
2023-05-10T08:21:17.488Z,14.70
2023-05-10T08:23:47.157Z,14.80
2023-05-10T08:26:14.061Z,14.80
2023-05-10T08:28:41.036Z,14.90
2023-05-10T08:31:08.002Z,14.90
2023-05-10T08:33:35.165Z,14.80
2023-05-10T08:36:02.845Z,14.90
2023-05-10T08:38:29.977Z,15.00
2023-05-10T08:40:58.128Z,14.80
2023-05-10T08:43:29.197Z,14.70
2023-05-10T08:45:57.565Z,14.70
2023-05-10T08:48:26.041Z,14.70
2023-05-10T08:50:56.899Z,14.90
2023-05-10T08:53:27.689Z,14.90
2023-05-10T08:55:55.193Z,15.00
2023-05-10T08:58:22.403Z,15.00
2023-05-10T09:00:52.499Z,14.80
2023-05-10T09:03:20.078Z,14.80
2023-05-10T09:05:47.405Z,14.90
2023-05-10T09:08:17.307Z,15.10
2023-05-10T09:10:49.120Z,15.10
2023-05-10T09:13:16.764Z,15.30
2023-05-10T09:15:45.997Z,15.30
2023-05-10T09:18:14.901Z,15.40
2023-05-10T09:20:42.273Z,15.50
2023-05-10T09:23:09.703Z,15.50
2023-05-10T09:25:38.208Z,15.50
2023-05-10T09:28:09.443Z,15.40
2023-05-10T09:30:37.105Z,15.40
2023-05-10T09:33:04.560Z,15.40
2023-05-10T09:35:33.747Z,15.50
2023-05-10T09:38:05.213Z,15.70
2023-05-10T09:40:33.033Z,15.80
2023-05-10T09:43:07.952Z,15.70
2023-05-10T09:45:44.053Z,15.60
2023-05-10T09:48:10.956Z,15.60
2023-05-10T09:50:37.930Z,15.80
2023-05-10T09:53:05.736Z,15.80
2023-05-10T09:55:46.957Z,15.50
2023-05-10T09:58:15.237Z,15.40
2023-05-10T10:00:44.704Z,15.40
2023-05-10T10:03:17.482Z,15.30
2023-05-10T10:05:45.521Z,15.30
2023-05-10T10:08:13.633Z,15.50
2023-05-10T10:10:42.026Z,15.60
2023-05-10T10:13:09.312Z,15.50
2023-05-10T10:15:36.680Z,15.70
2023-05-10T10:18:05.348Z,15.60
2023-05-10T10:20:33.002Z,15.50
2023-05-10T10:22:59.959Z,15.60
2023-05-10T10:25:27.126Z,15.70
2023-05-10T10:27:54.133Z,15.80
2023-05-10T10:30:34.717Z,15.90
2023-05-10T10:33:28.540Z,15.90
2023-05-10T10:35:59.134Z,15.80
2023-05-10T10:38:26.139Z,15.90
2023-05-10T10:41:31.808Z,15.90
2023-05-10T10:44:31.840Z,16.00
2023-05-10T10:47:15.521Z,15.80
2023-05-10T10:49:42.625Z,15.80
2023-05-10T10:52:32.197Z,15.90
2023-05-10T10:55:10.380Z,15.90
2023-05-10T10:57:50.352Z,16.10
2023-05-10T11:00:34.142Z,16.10
2023-05-10T11:03:08.146Z,16.30
2023-05-10T11:05:39.161Z,16.30
2023-05-10T11:08:28.085Z,16.20
2023-05-10T11:11:01.209Z,16.30
2023-05-10T11:13:30.404Z,16.20
2023-05-10T11:16:00.527Z,16.30
2023-05-10T11:18:30.561Z,16.50
2023-05-10T11:21:00.894Z,16.50
2023-05-10T11:23:33.089Z,16.70
2023-05-10T11:26:02.303Z,16.80
2023-05-10T11:28:29.408Z,16.70
2023-05-10T11:30:56.932Z,16.70
2023-05-10T11:33:24.745Z,16.90
2023-05-10T11:35:52.068Z,17.10
2023-05-10T11:38:19.173Z,17.20
2023-05-10T11:40:46.286Z,17.10
2023-05-10T11:43:13.571Z,17.10
2023-05-10T11:45:42.366Z,17.20
2023-05-10T11:48:10.012Z,17.30
2023-05-10T11:50:37.149Z,17.20
2023-05-10T11:53:04.305Z,17.20
2023-05-10T11:55:35.771Z,17.20
2023-05-10T11:58:03.675Z,17.30
2023-05-10T12:00:31.516Z,17.10
2023-05-10T12:02:59.429Z,17.20
2023-05-10T12:05:27.093Z,17.70
2023-05-10T12:07:54.039Z,17.90
2023-05-10T12:10:28.076Z,18.20
2023-05-10T12:12:55.109Z,18.20
2023-05-10T12:15:24.126Z,18.50
2023-05-10T12:17:52.372Z,18.30
2023-05-10T12:20:24.629Z,18.30
2023-05-10T12:22:54.122Z,18.00
2023-05-10T12:25:23.648Z,18.00
2023-05-10T12:27:56.913Z,17.80
2023-05-10T12:30:29.323Z,17.90
2023-05-10T12:33:16.032Z,18.10
2023-05-10T12:35:47.580Z,18.00
2023-05-10T12:38:28.042Z,18.40
2023-05-10T12:40:55.049Z,18.40
2023-05-10T12:43:21.890Z,18.50
2023-05-10T12:45:49.839Z,18.20
2023-05-10T12:48:16.935Z,18.50
2023-05-10T12:50:44.308Z,18.60
2023-05-10T12:53:11.513Z,18.70
2023-05-10T12:55:38.428Z,19.10
2023-05-10T12:58:05.229Z,19.10
2023-05-10T13:00:32.159Z,19.50
2023-05-10T13:02:59.424Z,19.60
2023-05-10T13:05:27.424Z,19.80
2023-05-10T13:07:54.282Z,19.80
2023-05-10T13:10:21.230Z,19.80
2023-05-10T13:12:48.218Z,19.90
2023-05-10T13:15:15.376Z,20.10
2023-05-10T13:17:43.773Z,20.20
2023-05-10T13:20:11.147Z,20.20
2023-05-10T13:22:40.638Z,20.30
2023-05-10T13:25:08.378Z,20.60
2023-05-10T13:27:35.401Z,20.80
2023-05-10T13:30:04.248Z,20.90
2023-05-10T13:32:31.443Z,21.10
2023-05-10T13:34:58.663Z,20.80
2023-05-10T13:37:25.780Z,20.90
2023-05-10T13:39:52.678Z,21.00
2023-05-10T13:42:19.713Z,21.20
2023-05-10T13:44:47.297Z,20.90
2023-05-10T13:47:14.127Z,21.00
2023-05-10T13:49:41.070Z,20.80
2023-05-10T13:52:08.627Z,20.50
2023-05-10T13:54:36.833Z,20.50
2023-05-10T13:57:03.835Z,20.60
2023-05-10T13:59:32.689Z,20.60
2023-05-10T14:02:00.836Z,20.60
2023-05-10T14:04:27.787Z,20.80
2023-05-10T14:06:55.591Z,20.90
2023-05-10T14:09:22.748Z,21.20
2023-05-10T14:11:49.627Z,21.50
2023-05-10T14:14:17.384Z,21.50
2023-05-10T14:16:45.386Z,21.50
2023-05-10T14:19:12.508Z,21.30
2023-05-10T14:21:42.267Z,21.20
2023-05-10T14:24:09.340Z,21.00
2023-05-10T14:26:36.450Z,21.00
2023-05-10T14:29:04.272Z,21.20
2023-05-10T14:31:31.469Z,21.20
2023-05-10T14:33:58.796Z,21.20
2023-05-10T14:36:26.841Z,21.00
2023-05-10T14:38:53.785Z,21.20
2023-05-10T14:41:20.904Z,21.20
2023-05-10T14:43:48.131Z,21.00
2023-05-10T14:46:15.188Z,20.80
2023-05-10T14:48:42.051Z,20.80
2023-05-10T14:51:09.122Z,21.00
2023-05-10T14:53:36.241Z,20.50
2023-05-10T14:56:03.980Z,20.60
2023-05-10T14:58:33.998Z,20.60
2023-05-10T15:01:01.597Z,20.90
2023-05-10T15:03:30.645Z,21.00
2023-05-10T15:05:58.905Z,21.20
2023-05-10T15:08:25.896Z,21.40
2023-05-10T15:10:53.166Z,21.20
2023-05-10T15:13:20.121Z,20.60
2023-05-10T15:15:47.049Z,20.50
2023-05-10T15:18:13.971Z,20.70
2023-05-10T15:20:40.831Z,21.20
2023-05-10T15:23:07.737Z,21.60
2023-05-10T15:25:38.233Z,21.80
2023-05-10T15:28:06.144Z,21.90
2023-05-10T15:30:33.110Z,21.80
2023-05-10T15:33:00.422Z,22.20
2023-05-10T15:35:28.180Z,22.20
2023-05-10T15:37:55.051Z,22.40
2023-05-10T15:40:22.345Z,22.70
2023-05-10T15:42:49.633Z,23.00
2023-05-10T15:45:16.838Z,22.80
2023-05-10T15:47:45.179Z,22.70
2023-05-10T15:50:13.148Z,22.80
2023-05-10T15:52:40.057Z,23.40
2023-05-10T15:55:13.127Z,23.60
2023-05-10T15:57:41.702Z,23.80
2023-05-10T16:00:10.338Z,24.10
2023-05-10T16:02:38.094Z,24.30
2023-05-10T16:05:06.741Z,24.50
2023-05-10T16:07:34.435Z,24.60
2023-05-10T16:10:04.331Z,24.20
2023-05-10T16:12:31.912Z,24.00
2023-05-10T16:14:58.786Z,23.90
2023-05-10T16:17:25.860Z,24.00
2023-05-10T16:19:55.165Z,24.30
2023-05-10T16:22:22.491Z,24.20
2023-05-10T16:24:49.832Z,23.80
2023-05-10T16:27:17.581Z,23.40
2023-05-10T16:29:44.501Z,23.40
2023-05-10T16:32:11.477Z,23.10
2023-05-10T16:34:38.466Z,23.30
2023-05-10T16:37:05.530Z,23.20
2023-05-10T16:39:32.494Z,22.90
2023-05-10T16:42:00.100Z,22.80
2023-05-10T16:44:27.079Z,22.80
2023-05-10T16:46:55.067Z,22.80
2023-05-10T16:49:25.829Z,22.50
2023-05-10T16:51:53.272Z,22.20
2023-05-10T16:54:21.649Z,22.20
2023-05-10T16:56:48.543Z,21.90
2023-05-10T16:59:16.428Z,21.70
2023-05-10T17:01:43.638Z,21.50
2023-05-10T17:04:11.076Z,21.30
2023-05-10T17:06:38.556Z,20.90
2023-05-10T17:09:05.898Z,21.00
2023-05-10T17:11:33.359Z,20.80
2023-05-10T17:14:01.788Z,20.90
2023-05-10T17:16:30.149Z,20.40
2023-05-10T17:18:57.257Z,20.00
2023-05-10T17:21:24.212Z,19.60
2023-05-10T17:23:51.124Z,19.30
2023-05-10T17:26:18.153Z,19.10
2023-05-10T17:28:45.327Z,19.20
2023-05-10T17:31:12.304Z,19.20
2023-05-10T17:33:39.424Z,19.10
2023-05-10T17:36:06.668Z,19.10
2023-05-10T17:38:33.491Z,19.00
2023-05-10T17:41:00.738Z,18.90
2023-05-10T17:43:27.597Z,18.90
2023-05-10T17:45:54.637Z,18.80
2023-05-10T17:48:22.208Z,18.50
2023-05-10T17:50:50.944Z,18.70
2023-05-10T17:53:18.606Z,18.50
2023-05-10T17:55:45.677Z,18.50
2023-05-10T17:58:12.828Z,18.40
2023-05-10T18:00:39.878Z,18.30
2023-05-10T18:03:08.228Z,18.20
2023-05-10T18:05:39.503Z,18.20
2023-05-10T18:08:07.330Z,18.30
2023-05-10T18:10:34.513Z,18.30
2023-05-10T18:13:02.595Z,18.20
2023-05-10T18:15:29.672Z,18.20
2023-05-10T18:17:57.635Z,18.20
2023-05-10T18:20:24.752Z,18.10
2023-05-10T18:22:51.806Z,17.90
2023-05-10T18:25:18.988Z,17.90
2023-05-10T18:27:46.099Z,18.10
2023-05-10T18:30:14.037Z,18.00
2023-05-10T18:32:41.203Z,17.70
2023-05-10T18:35:09.071Z,17.70
2023-05-10T18:37:36.717Z,17.60
2023-05-10T18:40:05.118Z,17.70
2023-05-10T18:42:32.208Z,17.50
2023-05-10T18:44:59.231Z,17.50
2023-05-10T18:47:26.852Z,17.50
2023-05-10T18:49:53.829Z,17.50
2023-05-10T18:52:20.846Z,17.50
2023-05-10T18:54:49.070Z,17.70
2023-05-10T18:57:16.200Z,17.60
2023-05-10T18:59:43.358Z,17.30
2023-05-10T19:02:10.560Z,17.30
2023-05-10T19:04:37.863Z,17.10
2023-05-10T19:07:04.761Z,17.00
2023-05-10T19:09:32.685Z,16.90
2023-05-10T19:11:59.614Z,16.80
2023-05-10T19:14:26.689Z,16.80
2023-05-10T19:16:54.370Z,16.80
2023-05-10T19:19:22.975Z,16.70
2023-05-10T19:21:50.031Z,16.50
2023-05-10T19:24:18.211Z,16.10
2023-05-10T19:26:46.192Z,15.80
2023-05-10T19:29:13.786Z,15.30
2023-05-10T19:31:41.674Z,15.20
2023-05-10T19:34:08.748Z,15.10
2023-05-10T19:36:36.068Z,15.10
2023-05-10T19:39:03.130Z,15.10
2023-05-10T19:41:30.777Z,15.00
2023-05-10T19:43:57.907Z,15.10
2023-05-10T19:46:25.012Z,15.10
2023-05-10T19:48:52.685Z,14.90
2023-05-10T19:51:19.737Z,14.80
2023-05-10T19:53:46.727Z,14.60
2023-05-10T19:56:14.315Z,14.60
2023-05-10T19:58:41.451Z,14.80
2023-05-10T20:01:08.614Z,14.80
2023-05-10T20:03:36.475Z,14.90
2023-05-10T20:06:04.223Z,14.90
2023-05-10T20:08:31.529Z,15.00
2023-05-10T20:11:00.680Z,14.90
2023-05-10T20:13:27.980Z,15.00
2023-05-10T20:15:59.667Z,15.10
2023-05-10T20:18:27.169Z,15.20
2023-05-10T20:20:58.444Z,15.20
2023-05-10T20:23:25.516Z,15.20
2023-05-10T20:25:55.106Z,15.30
2023-05-10T20:28:26.365Z,15.30
2023-05-10T20:30:55.904Z,15.30
2023-05-10T20:33:23.428Z,15.40
2023-05-10T20:35:51.449Z,15.40
2023-05-10T20:38:18.675Z,15.50
2023-05-10T20:40:46.549Z,15.20
2023-05-10T20:43:13.621Z,15.20
2023-05-10T20:45:40.974Z,15.30
2023-05-10T20:48:08.404Z,15.20
2023-05-10T20:50:35.597Z,15.20
2023-05-10T20:53:02.571Z,15.20
2023-05-10T20:55:29.558Z,15.40
2023-05-10T20:57:56.610Z,15.20
2023-05-10T21:00:23.477Z,15.40
2023-05-10T21:02:54.523Z,15.20
2023-05-10T21:05:22.278Z,15.20
2023-05-10T21:07:51.836Z,15.10
2023-05-10T21:10:18.859Z,15.40
2023-05-10T21:12:46.532Z,15.20
2023-05-10T21:15:13.637Z,15.20
2023-05-10T21:17:40.569Z,15.20
2023-05-10T21:20:08.354Z,15.20
2023-05-10T21:22:35.602Z,15.10
2023-05-10T21:25:02.600Z,15.20
2023-05-10T21:27:29.575Z,15.10
2023-05-10T21:29:56.699Z,15.10
2023-05-10T21:32:23.851Z,15.10
2023-05-10T21:34:50.913Z,15.10
2023-05-10T21:37:18.029Z,15.00
2023-05-10T21:39:45.086Z,15.00
2023-05-10T21:42:12.308Z,14.80
2023-05-10T21:44:39.352Z,14.70
2023-05-10T21:47:06.526Z,14.80
2023-05-10T21:49:33.503Z,14.80
2023-05-10T21:52:01.851Z,14.90
2023-05-10T21:54:28.795Z,14.70
2023-05-10T21:56:56.032Z,14.70
2023-05-10T21:59:23.382Z,14.60
2023-05-10T22:01:50.807Z,14.60
2023-05-10T22:04:18.332Z,14.60
2023-05-10T22:06:46.120Z,14.30
2023-05-10T22:09:13.516Z,14.40
2023-05-10T22:11:40.594Z,14.30
2023-05-10T22:14:08.247Z,14.40
2023-05-10T22:16:35.074Z,14.40
2023-05-10T22:19:01.954Z,14.40
2023-05-10T22:21:29.016Z,14.60
2023-05-10T22:23:55.892Z,14.70
2023-05-10T22:26:22.849Z,14.50
2023-05-10T22:28:51.007Z,14.60
2023-05-10T22:31:18.054Z,14.40
2023-05-10T22:33:44.968Z,14.40
2023-05-10T22:36:11.882Z,14.40
2023-05-10T22:38:38.837Z,14.30
2023-05-10T22:41:05.979Z,14.30
2023-05-10T22:43:33.500Z,14.10
2023-05-10T22:46:00.352Z,14.20
2023-05-10T22:48:29.243Z,14.10
2023-05-10T22:50:56.284Z,13.90
2023-05-10T22:53:23.205Z,14.00
2023-05-10T22:55:51.466Z,13.80
2023-05-10T22:58:18.474Z,13.80
2023-05-10T23:00:45.575Z,13.90
2023-05-10T23:03:14.731Z,13.90
2023-05-10T23:05:41.588Z,13.90
2023-05-10T23:08:08.439Z,13.90
2023-05-10T23:10:38.000Z,13.90
2023-05-10T23:13:05.409Z,14.00
2023-05-10T23:15:36.276Z,13.90
2023-05-10T23:18:04.615Z,14.00
2023-05-10T23:20:32.297Z,13.90
2023-05-10T23:22:59.410Z,13.90
2023-05-10T23:25:26.450Z,13.90
2023-05-10T23:27:54.244Z,13.60
2023-05-10T23:30:21.311Z,13.60
2023-05-10T23:32:48.291Z,13.40
2023-05-10T23:35:15.561Z,13.30
2023-05-10T23:37:42.653Z,13.50
2023-05-10T23:40:10.252Z,13.50
2023-05-10T23:42:37.270Z,13.50
2023-05-10T23:45:04.737Z,13.40
2023-05-10T23:47:31.646Z,13.30
2023-05-10T23:49:58.806Z,13.40
2023-05-10T23:52:26.568Z,13.50
2023-05-10T23:54:54.177Z,13.60
2023-05-10T23:57:21.566Z,13.60
2023-05-10T23:59:48.477Z,13.60
